sensor_id;sensor_type;location;lat;lon;timestamp;P1;durP1;ratioP1;P2;durP2;ratioP2
30818;SDS011;17546;42.674;23.284;2024-01-06T00:01:02;59.90;;;22.85;;
30818;SDS011;17546;42.674;23.284;2024-01-06T00:03:27;53.90;;;23.83;;
30818;SDS011;17546;42.674;23.284;2024-01-06T00:05:52;58.15;;;24.48;;
30818;SDS011;17546;42.674;23.284;2024-01-06T00:08:18;62.70;;;25.50;;
30818;SDS011;17546;42.674;23.284;2024-01-06T00:10:43;57.00;;;24.73;;
30818;SDS011;17546;42.674;23.284;2024-01-06T00:13:10;58.80;;;25.92;;
30818;SDS011;17546;42.674;23.284;2024-01-06T00:15:35;64.07;;;25.60;;
30818;SDS011;17546;42.674;23.284;2024-01-06T00:18:01;62.55;;;25.95;;
30818;SDS011;17546;42.674;23.284;2024-01-06T00:20:27;54.08;;;25.42;;
30818;SDS011;17546;42.674;23.284;2024-01-06T00:22:52;62.95;;;25.80;;
30818;SDS011;17546;42.674;23.284;2024-01-06T00:25:18;63.85;;;27.00;;
30818;SDS011;17546;42.674;23.284;2024-01-06T00:27:43;63.50;;;26.27;;
30818;SDS011;17546;42.674;23.284;2024-01-06T00:30:09;62.42;;;26.55;;
30818;SDS011;17546;42.674;23.284;2024-01-06T00:32:34;69.28;;;28.70;;
30818;SDS011;17546;42.674;23.284;2024-01-06T00:35:00;75.75;;;30.23;;
30818;SDS011;17546;42.674;23.284;2024-01-06T00:37:25;64.63;;;30.13;;
30818;SDS011;17546;42.674;23.284;2024-01-06T00:39:51;78.30;;;33.67;;
30818;SDS011;17546;42.674;23.284;2024-01-06T00:42:16;82.28;;;35.22;;
30818;SDS011;17546;42.674;23.284;2024-01-06T00:44:42;91.93;;;42.38;;
30818;SDS011;17546;42.674;23.284;2024-01-06T00:47:07;105.32;;;44.40;;
30818;SDS011;17546;42.674;23.284;2024-01-06T00:49:33;104.55;;;44.60;;
30818;SDS011;17546;42.674;23.284;2024-01-06T00:51:58;106.72;;;46.17;;
30818;SDS011;17546;42.674;23.284;2024-01-06T00:54:24;106.50;;;44.47;;
30818;SDS011;17546;42.674;23.284;2024-01-06T00:56:49;104.80;;;45.72;;
30818;SDS011;17546;42.674;23.284;2024-01-06T00:59:14;106.30;;;43.72;;
30818;SDS011;17546;42.674;23.284;2024-01-06T01:01:40;99.00;;;42.80;;
30818;SDS011;17546;42.674;23.284;2024-01-06T01:04:05;103.32;;;41.55;;
30818;SDS011;17546;42.674;23.284;2024-01-06T01:06:31;104.07;;;41.10;;
30818;SDS011;17546;42.674;23.284;2024-01-06T01:08:56;97.82;;;41.30;;
30818;SDS011;17546;42.674;23.284;2024-01-06T01:11:22;94.55;;;39.63;;
30818;SDS011;17546;42.674;23.284;2024-01-06T01:13:47;83.30;;;38.10;;
30818;SDS011;17546;42.674;23.284;2024-01-06T01:16:13;84.10;;;38.10;;
30818;SDS011;17546;42.674;23.284;2024-01-06T01:18:38;89.22;;;38.38;;
30818;SDS011;17546;42.674;23.284;2024-01-06T01:21:04;82.13;;;36.50;;
30818;SDS011;17546;42.674;23.284;2024-01-06T01:23:29;82.38;;;36.13;;
30818;SDS011;17546;42.674;23.284;2024-01-06T01:25:55;82.45;;;37.50;;
30818;SDS011;17546;42.674;23.284;2024-01-06T01:28:20;86.53;;;37.03;;
30818;SDS011;17546;42.674;23.284;2024-01-06T01:30:46;86.85;;;36.65;;
30818;SDS011;17546;42.674;23.284;2024-01-06T01:33:11;82.57;;;35.80;;
30818;SDS011;17546;42.674;23.284;2024-01-06T01:35:37;84.53;;;37.75;;
30818;SDS011;17546;42.674;23.284;2024-01-06T01:38:02;89.03;;;36.45;;
30818;SDS011;17546;42.674;23.284;2024-01-06T01:40:28;82.60;;;36.67;;
30818;SDS011;17546;42.674;23.284;2024-01-06T01:42:53;87.68;;;36.67;;
30818;SDS011;17546;42.674;23.284;2024-01-06T01:45:19;92.05;;;37.70;;
30818;SDS011;17546;42.674;23.284;2024-01-06T01:47:45;83.53;;;38.17;;
30818;SDS011;17546;42.674;23.284;2024-01-06T01:50:11;83.00;;;37.15;;
30818;SDS011;17546;42.674;23.284;2024-01-06T01:52:37;85.55;;;38.10;;
30818;SDS011;17546;42.674;23.284;2024-01-06T01:55:05;86.40;;;37.13;;
30818;SDS011;17546;42.674;23.284;2024-01-06T01:57:31;85.18;;;36.83;;
30818;SDS011;17546;42.674;23.284;2024-01-06T01:59:57;81.63;;;36.38;;
30818;SDS011;17546;42.674;23.284;2024-01-06T02:02:22;91.72;;;36.47;;
30818;SDS011;17546;42.674;23.284;2024-01-06T02:04:48;82.72;;;36.78;;
30818;SDS011;17546;42.674;23.284;2024-01-06T02:07:13;70.80;;;32.03;;
30818;SDS011;17546;42.674;23.284;2024-01-06T02:09:39;77.78;;;31.70;;
30818;SDS011;17546;42.674;23.284;2024-01-06T02:12:05;76.30;;;30.95;;
30818;SDS011;17546;42.674;23.284;2024-01-06T02:14:30;67.68;;;30.45;;
30818;SDS011;17546;42.674;23.284;2024-01-06T02:16:57;65.75;;;30.60;;
30818;SDS011;17546;42.674;23.284;2024-01-06T02:19:23;65.95;;;29.55;;
30818;SDS011;17546;42.674;23.284;2024-01-06T02:21:52;70.15;;;29.40;;
30818;SDS011;17546;42.674;23.284;2024-01-06T02:24:18;60.10;;;28.02;;
30818;SDS011;17546;42.674;23.284;2024-01-06T02:26:44;62.72;;;26.20;;
30818;SDS011;17546;42.674;23.284;2024-01-06T02:29:10;68.20;;;26.35;;
30818;SDS011;17546;42.674;23.284;2024-01-06T02:31:35;59.90;;;26.55;;
30818;SDS011;17546;42.674;23.284;2024-01-06T02:34:01;54.35;;;26.05;;
30818;SDS011;17546;42.674;23.284;2024-01-06T02:36:26;62.15;;;26.35;;
30818;SDS011;17546;42.674;23.284;2024-01-06T02:38:52;61.85;;;26.40;;
30818;SDS011;17546;42.674;23.284;2024-01-06T02:41:17;55.00;;;26.60;;
30818;SDS011;17546;42.674;23.284;2024-01-06T02:43:43;58.33;;;26.33;;
30818;SDS011;17546;42.674;23.284;2024-01-06T02:46:08;62.28;;;26.73;;
30818;SDS011;17546;42.674;23.284;2024-01-06T02:48:34;63.10;;;26.13;;
30818;SDS011;17546;42.674;23.284;2024-01-06T02:50:59;54.22;;;25.52;;
30818;SDS011;17546;42.674;23.284;2024-01-06T02:53:24;62.63;;;25.95;;
30818;SDS011;17546;42.674;23.284;2024-01-06T02:55:50;55.03;;;25.77;;
30818;SDS011;17546;42.674;23.284;2024-01-06T02:58:15;62.35;;;26.15;;
30818;SDS011;17546;42.674;23.284;2024-01-06T03:00:41;60.78;;;26.08;;
30818;SDS011;17546;42.674;23.284;2024-01-06T03:03:06;62.42;;;25.20;;
30818;SDS011;17546;42.674;23.284;2024-01-06T03:05:33;53.13;;;25.83;;
30818;SDS011;17546;42.674;23.284;2024-01-06T03:07:59;59.75;;;26.23;;
30818;SDS011;17546;42.674;23.284;2024-01-06T03:10:24;58.03;;;24.52;;
30818;SDS011;17546;42.674;23.284;2024-01-06T03:12:50;61.63;;;25.30;;
30818;SDS011;17546;42.674;23.284;2024-01-06T03:15:15;55.90;;;24.80;;
30818;SDS011;17546;42.674;23.284;2024-01-06T03:17:41;63.53;;;26.42;;
30818;SDS011;17546;42.674;23.284;2024-01-06T03:20:07;57.88;;;25.58;;
30818;SDS011;17546;42.674;23.284;2024-01-06T03:22:34;58.97;;;25.05;;
30818;SDS011;17546;42.674;23.284;2024-01-06T03:24:59;46.63;;;23.52;;
30818;SDS011;17546;42.674;23.284;2024-01-06T03:27:24;55.03;;;23.98;;
30818;SDS011;17546;42.674;23.284;2024-01-06T03:29:50;49.65;;;23.77;;
30818;SDS011;17546;42.674;23.284;2024-01-06T03:32:16;61.45;;;23.65;;
30818;SDS011;17546;42.674;23.284;2024-01-06T03:34:41;55.92;;;23.83;;
30818;SDS011;17546;42.674;23.284;2024-01-06T03:37:07;54.65;;;23.05;;
30818;SDS011;17546;42.674;23.284;2024-01-06T03:39:32;51.42;;;22.25;;
30818;SDS011;17546;42.674;23.284;2024-01-06T03:41:59;66.28;;;22.65;;
30818;SDS011;17546;42.674;23.284;2024-01-06T03:44:25;47.47;;;22.13;;
30818;SDS011;17546;42.674;23.284;2024-01-06T03:46:55;51.58;;;22.27;;
30818;SDS011;17546;42.674;23.284;2024-01-06T03:49:23;50.92;;;21.73;;
30818;SDS011;17546;42.674;23.284;2024-01-06T03:51:49;48.40;;;20.63;;
30818;SDS011;17546;42.674;23.284;2024-01-06T03:54:14;51.83;;;20.50;;
30818;SDS011;17546;42.674;23.284;2024-01-06T03:56:40;45.50;;;20.48;;
30818;SDS011;17546;42.674;23.284;2024-01-06T03:59:06;46.80;;;19.52;;
30818;SDS011;17546;42.674;23.284;2024-01-06T04:01:32;41.83;;;18.67;;
30818;SDS011;17546;42.674;23.284;2024-01-06T04:04:00;48.60;;;19.67;;
30818;SDS011;17546;42.674;23.284;2024-01-06T04:06:26;48.03;;;19.02;;
30818;SDS011;17546;42.674;23.284;2024-01-06T04:08:52;49.33;;;19.65;;
30818;SDS011;17546;42.674;23.284;2024-01-06T04:11:20;46.03;;;18.23;;
30818;SDS011;17546;42.674;23.284;2024-01-06T04:13:45;50.83;;;18.92;;
30818;SDS011;17546;42.674;23.284;2024-01-06T04:16:11;44.25;;;18.52;;
30818;SDS011;17546;42.674;23.284;2024-01-06T04:18:36;58.70;;;20.70;;
30818;SDS011;17546;42.674;23.284;2024-01-06T04:21:02;55.85;;;19.98;;
30818;SDS011;17546;42.674;23.284;2024-01-06T04:23:28;52.22;;;18.75;;
30818;SDS011;17546;42.674;23.284;2024-01-06T04:25:53;43.65;;;18.85;;
30818;SDS011;17546;42.674;23.284;2024-01-06T04:28:19;58.25;;;18.10;;
30818;SDS011;17546;42.674;23.284;2024-01-06T04:30:44;46.13;;;19.23;;
30818;SDS011;17546;42.674;23.284;2024-01-06T04:33:09;44.97;;;19.08;;
30818;SDS011;17546;42.674;23.284;2024-01-06T04:35:35;41.67;;;18.23;;
30818;SDS011;17546;42.674;23.284;2024-01-06T04:38:00;47.53;;;18.75;;
30818;SDS011;17546;42.674;23.284;2024-01-06T04:40:26;41.60;;;17.70;;
30818;SDS011;17546;42.674;23.284;2024-01-06T04:42:52;40.53;;;18.00;;
30818;SDS011;17546;42.674;23.284;2024-01-06T04:45:18;41.70;;;17.90;;
30818;SDS011;17546;42.674;23.284;2024-01-06T04:47:44;37.47;;;17.13;;
30818;SDS011;17546;42.674;23.284;2024-01-06T04:50:10;43.17;;;16.98;;
30818;SDS011;17546;42.674;23.284;2024-01-06T04:52:35;44.00;;;18.42;;
30818;SDS011;17546;42.674;23.284;2024-01-06T04:55:01;46.92;;;17.38;;
30818;SDS011;17546;42.674;23.284;2024-01-06T04:57:27;38.75;;;17.63;;
30818;SDS011;17546;42.674;23.284;2024-01-06T04:59:52;39.65;;;16.27;;
30818;SDS011;17546;42.674;23.284;2024-01-06T05:02:18;42.63;;;16.70;;
30818;SDS011;17546;42.674;23.284;2024-01-06T05:04:44;38.60;;;15.95;;
30818;SDS011;17546;42.674;23.284;2024-01-06T05:07:09;37.88;;;16.48;;
30818;SDS011;17546;42.674;23.284;2024-01-06T05:09:35;41.85;;;16.67;;
30818;SDS011;17546;42.674;23.284;2024-01-06T05:12:01;37.05;;;16.17;;
30818;SDS011;17546;42.674;23.284;2024-01-06T05:14:26;36.40;;;17.25;;
30818;SDS011;17546;42.674;23.284;2024-01-06T05:16:52;43.10;;;16.90;;
30818;SDS011;17546;42.674;23.284;2024-01-06T05:19:17;41.15;;;17.00;;
30818;SDS011;17546;42.674;23.284;2024-01-06T05:21:45;44.33;;;16.95;;
30818;SDS011;17546;42.674;23.284;2024-01-06T05:24:14;38.53;;;16.17;;
30818;SDS011;17546;42.674;23.284;2024-01-06T05:26:40;41.97;;;17.42;;
30818;SDS011;17546;42.674;23.284;2024-01-06T05:29:05;41.72;;;16.25;;
30818;SDS011;17546;42.674;23.284;2024-01-06T05:31:31;37.95;;;16.27;;
30818;SDS011;17546;42.674;23.284;2024-01-06T05:33:56;44.78;;;17.55;;
30818;SDS011;17546;42.674;23.284;2024-01-06T05:36:22;40.53;;;17.50;;
30818;SDS011;17546;42.674;23.284;2024-01-06T05:38:47;42.33;;;16.48;;
30818;SDS011;17546;42.674;23.284;2024-01-06T05:41:13;45.92;;;17.33;;
30818;SDS011;17546;42.674;23.284;2024-01-06T05:43:38;39.15;;;17.08;;
30818;SDS011;17546;42.674;23.284;2024-01-06T05:46:04;45.22;;;17.60;;
30818;SDS011;17546;42.674;23.284;2024-01-06T05:48:29;48.15;;;16.52;;
30818;SDS011;17546;42.674;23.284;2024-01-06T05:50:55;41.22;;;16.98;;
30818;SDS011;17546;42.674;23.284;2024-01-06T05:53:20;43.08;;;17.42;;
30818;SDS011;17546;42.674;23.284;2024-01-06T05:55:46;38.67;;;16.30;;
30818;SDS011;17546;42.674;23.284;2024-01-06T05:58:12;37.92;;;16.13;;
30818;SDS011;17546;42.674;23.284;2024-01-06T06:00:37;37.22;;;15.48;;
30818;SDS011;17546;42.674;23.284;2024-01-06T06:03:03;38.75;;;16.15;;
30818;SDS011;17546;42.674;23.284;2024-01-06T06:05:29;40.83;;;15.13;;
30818;SDS011;17546;42.674;23.284;2024-01-06T06:07:55;51.60;;;17.00;;
30818;SDS011;17546;42.674;23.284;2024-01-06T06:10:20;37.70;;;15.32;;
30818;SDS011;17546;42.674;23.284;2024-01-06T06:12:46;38.03;;;15.85;;
30818;SDS011;17546;42.674;23.284;2024-01-06T06:15:12;45.20;;;16.58;;
30818;SDS011;17546;42.674;23.284;2024-01-06T06:17:38;33.70;;;14.20;;
30818;SDS011;17546;42.674;23.284;2024-01-06T06:20:04;34.80;;;15.20;;
30818;SDS011;17546;42.674;23.284;2024-01-06T06:22:31;33.78;;;14.95;;
30818;SDS011;17546;42.674;23.284;2024-01-06T06:24:58;37.05;;;15.07;;
30818;SDS011;17546;42.674;23.284;2024-01-06T06:27:24;37.63;;;15.90;;
30818;SDS011;17546;42.674;23.284;2024-01-06T06:29:51;37.10;;;15.82;;
30818;SDS011;17546;42.674;23.284;2024-01-06T06:32:17;38.70;;;16.13;;
30818;SDS011;17546;42.674;23.284;2024-01-06T06:34:42;41.00;;;15.52;;
30818;SDS011;17546;42.674;23.284;2024-01-06T06:37:08;33.47;;;15.75;;
30818;SDS011;17546;42.674;23.284;2024-01-06T06:39:33;36.65;;;16.88;;
30818;SDS011;17546;42.674;23.284;2024-01-06T06:42:00;38.60;;;16.55;;
30818;SDS011;17546;42.674;23.284;2024-01-06T06:44:26;43.85;;;17.38;;
30818;SDS011;17546;42.674;23.284;2024-01-06T06:46:52;44.30;;;16.33;;
30818;SDS011;17546;42.674;23.284;2024-01-06T06:49:17;40.47;;;16.33;;
30818;SDS011;17546;42.674;23.284;2024-01-06T06:51:43;41.28;;;16.52;;
30818;SDS011;17546;42.674;23.284;2024-01-06T06:54:12;46.75;;;17.15;;
30818;SDS011;17546;42.674;23.284;2024-01-06T06:56:40;45.70;;;16.50;;
30818;SDS011;17546;42.674;23.284;2024-01-06T06:59:06;39.75;;;17.55;;
30818;SDS011;17546;42.674;23.284;2024-01-06T07:01:32;43.08;;;17.30;;
30818;SDS011;17546;42.674;23.284;2024-01-06T07:03:58;37.70;;;16.95;;
30818;SDS011;17546;42.674;23.284;2024-01-06T07:06:23;38.33;;;17.25;;
30818;SDS011;17546;42.674;23.284;2024-01-06T07:08:48;32.95;;;15.65;;
30818;SDS011;17546;42.674;23.284;2024-01-06T07:11:14;41.33;;;16.05;;
30818;SDS011;17546;42.674;23.284;2024-01-06T07:13:43;36.53;;;14.75;;
30818;SDS011;17546;42.674;23.284;2024-01-06T07:16:09;41.03;;;16.10;;
30818;SDS011;17546;42.674;23.284;2024-01-06T07:18:34;37.78;;;15.43;;
30818;SDS011;17546;42.674;23.284;2024-01-06T07:21:00;32.30;;;14.80;;
30818;SDS011;17546;42.674;23.284;2024-01-06T07:23:25;38.58;;;14.90;;
30818;SDS011;17546;42.674;23.284;2024-01-06T07:25:51;37.78;;;15.32;;
30818;SDS011;17546;42.674;23.284;2024-01-06T07:28:16;42.38;;;15.85;;
30818;SDS011;17546;42.674;23.284;2024-01-06T07:30:42;33.00;;;15.98;;
30818;SDS011;17546;42.674;23.284;2024-01-06T07:33:07;33.78;;;14.55;;
30818;SDS011;17546;42.674;23.284;2024-01-06T07:35:33;44.42;;;14.95;;
30818;SDS011;17546;42.674;23.284;2024-01-06T07:37:59;40.33;;;14.82;;
30818;SDS011;17546;42.674;23.284;2024-01-06T07:40:24;32.78;;;15.43;;
30818;SDS011;17546;42.674;23.284;2024-01-06T07:42:50;37.60;;;16.10;;
30818;SDS011;17546;42.674;23.284;2024-01-06T07:45:16;34.95;;;15.05;;
30818;SDS011;17546;42.674;23.284;2024-01-06T07:47:42;33.80;;;14.35;;
30818;SDS011;17546;42.674;23.284;2024-01-06T07:50:08;43.08;;;14.90;;
30818;SDS011;17546;42.674;23.284;2024-01-06T07:52:34;27.85;;;13.30;;
30818;SDS011;17546;42.674;23.284;2024-01-06T07:55:00;36.03;;;14.32;;
30818;SDS011;17546;42.674;23.284;2024-01-06T07:57:25;38.60;;;14.98;;
30818;SDS011;17546;42.674;23.284;2024-01-06T07:59:51;33.13;;;14.73;;
30818;SDS011;17546;42.674;23.284;2024-01-06T08:02:16;31.65;;;14.82;;
30818;SDS011;17546;42.674;23.284;2024-01-06T08:04:42;47.10;;;16.13;;
30818;SDS011;17546;42.674;23.284;2024-01-06T08:07:07;38.85;;;15.73;;
30818;SDS011;17546;42.674;23.284;2024-01-06T08:09:33;40.33;;;14.60;;
30818;SDS011;17546;42.674;23.284;2024-01-06T08:11:58;37.67;;;15.40;;
30818;SDS011;17546;42.674;23.284;2024-01-06T08:14:24;41.78;;;16.42;;
30818;SDS011;17546;42.674;23.284;2024-01-06T08:16:49;54.38;;;21.23;;
30818;SDS011;17546;42.674;23.284;2024-01-06T08:19:15;53.03;;;19.33;;
30818;SDS011;17546;42.674;23.284;2024-01-06T08:21:41;40.33;;;17.77;;
30818;SDS011;17546;42.674;23.284;2024-01-06T08:24:06;47.45;;;16.08;;
30818;SDS011;17546;42.674;23.284;2024-01-06T08:26:32;40.05;;;15.90;;
30818;SDS011;17546;42.674;23.284;2024-01-06T08:28:58;56.78;;;20.77;;
30818;SDS011;17546;42.674;23.284;2024-01-06T08:31:24;103.57;;;32.28;;
30818;SDS011;17546;42.674;23.284;2024-01-06T08:33:49;66.03;;;22.05;;
30818;SDS011;17546;42.674;23.284;2024-01-06T08:36:15;53.72;;;21.73;;
30818;SDS011;17546;42.674;23.284;2024-01-06T08:38:41;63.65;;;22.17;;
30818;SDS011;17546;42.674;23.284;2024-01-06T08:41:06;46.30;;;22.08;;
30818;SDS011;17546;42.674;23.284;2024-01-06T08:43:32;51.15;;;22.13;;
30818;SDS011;17546;42.674;23.284;2024-01-06T08:45:57;53.83;;;22.38;;
30818;SDS011;17546;42.674;23.284;2024-01-06T08:48:23;59.75;;;22.27;;
30818;SDS011;17546;42.674;23.284;2024-01-06T08:50:49;62.55;;;21.75;;
30818;SDS011;17546;42.674;23.284;2024-01-06T08:53:15;53.83;;;21.90;;
30818;SDS011;17546;42.674;23.284;2024-01-06T08:55:40;61.08;;;21.55;;
30818;SDS011;17546;42.674;23.284;2024-01-06T08:58:06;48.80;;;20.92;;
30818;SDS011;17546;42.674;23.284;2024-01-06T09:00:31;62.05;;;21.30;;
30818;SDS011;17546;42.674;23.284;2024-01-06T09:02:57;71.28;;;24.13;;
30818;SDS011;17546;42.674;23.284;2024-01-06T09:05:22;64.20;;;22.83;;
30818;SDS011;17546;42.674;23.284;2024-01-06T09:07:48;64.20;;;24.00;;
30818;SDS011;17546;42.674;23.284;2024-01-06T09:10:18;81.30;;;28.77;;
30818;SDS011;17546;42.674;23.284;2024-01-06T09:12:44;82.57;;;28.92;;
30818;SDS011;17546;42.674;23.284;2024-01-06T09:15:09;75.88;;;28.13;;
30818;SDS011;17546;42.674;23.284;2024-01-06T09:17:35;65.18;;;25.98;;
30818;SDS011;17546;42.674;23.284;2024-01-06T09:20:01;59.85;;;25.45;;
30818;SDS011;17546;42.674;23.284;2024-01-06T09:22:27;61.65;;;24.88;;
30818;SDS011;17546;42.674;23.284;2024-01-06T09:24:52;57.15;;;23.45;;
30818;SDS011;17546;42.674;23.284;2024-01-06T09:27:18;58.28;;;24.50;;
30818;SDS011;17546;42.674;23.284;2024-01-06T09:29:44;67.05;;;24.65;;
30818;SDS011;17546;42.674;23.284;2024-01-06T09:32:10;73.95;;;28.70;;
30818;SDS011;17546;42.674;23.284;2024-01-06T09:34:38;81.10;;;31.35;;
30818;SDS011;17546;42.674;23.284;2024-01-06T09:37:03;85.20;;;31.90;;
30818;SDS011;17546;42.674;23.284;2024-01-06T09:39:29;78.38;;;35.08;;
30818;SDS011;17546;42.674;23.284;2024-01-06T09:41:56;103.68;;;39.08;;
30818;SDS011;17546;42.674;23.284;2024-01-06T09:44:24;87.38;;;35.58;;
30818;SDS011;17546;42.674;23.284;2024-01-06T09:46:49;87.80;;;35.22;;
30818;SDS011;17546;42.674;23.284;2024-01-06T09:49:17;89.50;;;34.33;;
30818;SDS011;17546;42.674;23.284;2024-01-06T09:51:48;83.32;;;33.15;;
30818;SDS011;17546;42.674;23.284;2024-01-06T09:54:16;86.57;;;34.38;;
30818;SDS011;17546;42.674;23.284;2024-01-06T09:56:49;69.00;;;29.17;;
30818;SDS011;17546;42.674;23.284;2024-01-06T09:59:15;63.30;;;28.80;;
30818;SDS011;17546;42.674;23.284;2024-01-06T10:01:41;73.40;;;27.55;;
30818;SDS011;17546;42.674;23.284;2024-01-06T10:04:07;66.38;;;28.52;;
30818;SDS011;17546;42.674;23.284;2024-01-06T10:06:32;61.25;;;27.02;;
30818;SDS011;17546;42.674;23.284;2024-01-06T10:08:58;66.93;;;24.83;;
30818;SDS011;17546;42.674;23.284;2024-01-06T10:11:23;64.97;;;25.77;;
30818;SDS011;17546;42.674;23.284;2024-01-06T10:13:49;60.22;;;26.08;;
30818;SDS011;17546;42.674;23.284;2024-01-06T10:16:15;75.28;;;26.52;;
30818;SDS011;17546;42.674;23.284;2024-01-06T10:18:41;70.75;;;26.13;;
30818;SDS011;17546;42.674;23.284;2024-01-06T10:21:07;55.88;;;26.13;;
30818;SDS011;17546;42.674;23.284;2024-01-06T10:23:33;64.50;;;25.80;;
30818;SDS011;17546;42.674;23.284;2024-01-06T10:25:58;64.15;;;25.92;;
30818;SDS011;17546;42.674;23.284;2024-01-06T10:28:24;57.85;;;24.92;;
30818;SDS011;17546;42.674;23.284;2024-01-06T10:30:53;68.65;;;27.70;;
30818;SDS011;17546;42.674;23.284;2024-01-06T10:33:20;63.55;;;30.27;;
30818;SDS011;17546;42.674;23.284;2024-01-06T10:35:52;77.43;;;31.52;;
30818;SDS011;17546;42.674;23.284;2024-01-06T10:38:19;78.05;;;30.58;;
30818;SDS011;17546;42.674;23.284;2024-01-06T10:40:57;72.07;;;29.75;;
30818;SDS011;17546;42.674;23.284;2024-01-06T10:43:27;64.45;;;27.05;;
30818;SDS011;17546;42.674;23.284;2024-01-06T10:45:59;65.20;;;27.25;;
30818;SDS011;17546;42.674;23.284;2024-01-06T10:48:30;67.78;;;25.05;;
30818;SDS011;17546;42.674;23.284;2024-01-06T10:50:58;67.97;;;24.95;;
30818;SDS011;17546;42.674;23.284;2024-01-06T10:53:24;49.70;;;23.80;;
30818;SDS011;17546;42.674;23.284;2024-01-06T10:55:51;55.70;;;23.67;;
30818;SDS011;17546;42.674;23.284;2024-01-06T10:58:17;52.70;;;23.38;;
30818;SDS011;17546;42.674;23.284;2024-01-06T11:00:45;77.07;;;23.88;;
30818;SDS011;17546;42.674;23.284;2024-01-06T11:03:11;52.78;;;23.75;;
30818;SDS011;17546;42.674;23.284;2024-01-06T11:05:38;56.88;;;24.35;;
30818;SDS011;17546;42.674;23.284;2024-01-06T11:08:08;58.45;;;23.77;;
30818;SDS011;17546;42.674;23.284;2024-01-06T11:10:36;55.92;;;24.77;;
30818;SDS011;17546;42.674;23.284;2024-01-06T11:13:07;71.45;;;24.10;;
30818;SDS011;17546;42.674;23.284;2024-01-06T11:15:43;59.63;;;23.00;;
30818;SDS011;17546;42.674;23.284;2024-01-06T11:24:04;50.25;;;22.02;;
30818;SDS011;17546;42.674;23.284;2024-01-06T11:26:32;55.08;;;21.27;;
30818;SDS011;17546;42.674;23.284;2024-01-06T11:28:59;53.80;;;20.30;;
30818;SDS011;17546;42.674;23.284;2024-01-06T11:31:34;58.42;;;20.85;;
30818;SDS011;17546;42.674;23.284;2024-01-06T11:37:01;58.08;;;18.95;;
30818;SDS011;17546;42.674;23.284;2024-01-06T11:39:36;48.03;;;16.92;;
30818;SDS011;17546;42.674;23.284;2024-01-06T11:42:05;30.48;;;15.35;;
30818;SDS011;17546;42.674;23.284;2024-01-06T11:44:36;48.58;;;17.83;;
30818;SDS011;17546;42.674;23.284;2024-01-06T11:47:03;45.28;;;16.83;;
30818;SDS011;17546;42.674;23.284;2024-01-06T11:49:30;38.38;;;15.68;;
30818;SDS011;17546;42.674;23.284;2024-01-06T11:51:56;52.08;;;16.15;;
30818;SDS011;17546;42.674;23.284;2024-01-06T11:54:22;35.28;;;14.40;;
30818;SDS011;17546;42.674;23.284;2024-01-06T11:56:48;30.48;;;12.40;;
30818;SDS011;17546;42.674;23.284;2024-01-06T11:59:14;28.80;;;11.77;;
30818;SDS011;17546;42.674;23.284;2024-01-06T12:01:40;30.73;;;12.05;;
30818;SDS011;17546;42.674;23.284;2024-01-06T12:04:06;33.58;;;13.20;;
30818;SDS011;17546;42.674;23.284;2024-01-06T12:06:32;28.55;;;11.55;;
30818;SDS011;17546;42.674;23.284;2024-01-06T12:09:05;33.28;;;11.20;;
30818;SDS011;17546;42.674;23.284;2024-01-06T12:11:35;29.35;;;10.30;;
30818;SDS011;17546;42.674;23.284;2024-01-06T12:14:04;33.47;;;10.57;;
30818;SDS011;17546;42.674;23.284;2024-01-06T12:16:31;34.70;;;10.68;;
30818;SDS011;17546;42.674;23.284;2024-01-06T12:18:58;24.65;;;10.35;;
30818;SDS011;17546;42.674;23.284;2024-01-06T12:21:25;26.88;;;11.18;;
30818;SDS011;17546;42.674;23.284;2024-01-06T12:23:52;34.75;;;10.63;;
30818;SDS011;17546;42.674;23.284;2024-01-06T12:26:18;28.77;;;10.32;;
30818;SDS011;17546;42.674;23.284;2024-01-06T12:28:44;34.88;;;12.10;;
30818;SDS011;17546;42.674;23.284;2024-01-06T12:31:10;31.02;;;9.68;;
30818;SDS011;17546;42.674;23.284;2024-01-06T12:33:37;23.45;;;8.65;;
30818;SDS011;17546;42.674;23.284;2024-01-06T12:36:06;25.88;;;8.80;;
30818;SDS011;17546;42.674;23.284;2024-01-06T12:38:32;27.40;;;9.35;;
30818;SDS011;17546;42.674;23.284;2024-01-06T12:40:58;23.55;;;8.80;;
30818;SDS011;17546;42.674;23.284;2024-01-06T12:43:25;23.40;;;8.60;;
30818;SDS011;17546;42.674;23.284;2024-01-06T12:45:50;21.17;;;8.43;;
30818;SDS011;17546;42.674;23.284;2024-01-06T12:48:18;20.98;;;9.38;;
30818;SDS011;17546;42.674;23.284;2024-01-06T12:50:43;29.23;;;10.27;;
30818;SDS011;17546;42.674;23.284;2024-01-06T12:53:09;26.95;;;10.68;;
30818;SDS011;17546;42.674;23.284;2024-01-06T12:55:37;23.02;;;10.82;;
30818;SDS011;17546;42.674;23.284;2024-01-06T12:58:02;29.98;;;11.23;;
30818;SDS011;17546;42.674;23.284;2024-01-06T13:00:29;31.65;;;11.48;;
30818;SDS011;17546;42.674;23.284;2024-01-06T13:02:55;30.33;;;10.20;;
30818;SDS011;17546;42.674;23.284;2024-01-06T13:05:21;30.08;;;9.63;;
30818;SDS011;17546;42.674;23.284;2024-01-06T13:07:47;24.92;;;10.10;;
30818;SDS011;17546;42.674;23.284;2024-01-06T13:10:14;27.98;;;10.00;;
30818;SDS011;17546;42.674;23.284;2024-01-06T13:12:40;23.67;;;9.88;;
30818;SDS011;17546;42.674;23.284;2024-01-06T13:15:05;18.35;;;9.07;;
30818;SDS011;17546;42.674;23.284;2024-01-06T13:17:36;23.73;;;9.35;;
30818;SDS011;17546;42.674;23.284;2024-01-06T13:20:02;23.33;;;8.68;;
30818;SDS011;17546;42.674;23.284;2024-01-06T13:22:28;24.52;;;7.80;;
30818;SDS011;17546;42.674;23.284;2024-01-06T13:24:53;20.23;;;7.15;;
30818;SDS011;17546;42.674;23.284;2024-01-06T13:27:19;21.08;;;7.47;;
30818;SDS011;17546;42.674;23.284;2024-01-06T13:29:44;27.15;;;7.40;;
30818;SDS011;17546;42.674;23.284;2024-01-06T13:32:10;22.55;;;7.15;;
30818;SDS011;17546;42.674;23.284;2024-01-06T13:34:36;19.77;;;7.45;;
30818;SDS011;17546;42.674;23.284;2024-01-06T13:37:02;24.65;;;7.25;;
30818;SDS011;17546;42.674;23.284;2024-01-06T13:39:27;22.70;;;8.05;;
30818;SDS011;17546;42.674;23.284;2024-01-06T13:41:53;20.80;;;8.38;;
30818;SDS011;17546;42.674;23.284;2024-01-06T13:44:18;18.40;;;7.40;;
30818;SDS011;17546;42.674;23.284;2024-01-06T13:46:45;18.67;;;7.45;;
30818;SDS011;17546;42.674;23.284;2024-01-06T13:49:12;15.68;;;7.68;;
30818;SDS011;17546;42.674;23.284;2024-01-06T13:51:38;18.40;;;6.72;;
30818;SDS011;17546;42.674;23.284;2024-01-06T13:54:05;23.83;;;7.55;;
30818;SDS011;17546;42.674;23.284;2024-01-06T13:56:30;20.38;;;7.10;;
30818;SDS011;17546;42.674;23.284;2024-01-06T13:58:57;20.15;;;8.20;;
30818;SDS011;17546;42.674;23.284;2024-01-06T14:01:23;20.30;;;7.15;;
30818;SDS011;17546;42.674;23.284;2024-01-06T14:03:49;21.38;;;8.07;;
30818;SDS011;17546;42.674;23.284;2024-01-06T14:06:15;21.25;;;8.02;;
30818;SDS011;17546;42.674;23.284;2024-01-06T14:08:42;19.27;;;7.90;;
30818;SDS011;17546;42.674;23.284;2024-01-06T14:11:08;25.17;;;7.40;;